createdAt,value
2022-12-01T00:01:22.991Z,82.90
2022-12-01T00:03:51.051Z,81.43
2022-12-01T00:06:22.258Z,107.90
2022-12-01T00:09:12.223Z,87.33
2022-12-01T00:11:42.639Z,88.63
2022-12-01T00:14:10.005Z,75.77
2022-12-01T00:16:37.529Z,66.07
2022-12-01T00:19:05.024Z,79.17
2022-12-01T00:21:32.484Z,76.57
2022-12-01T00:23:59.795Z,67.00
2022-12-01T00:26:28.124Z,70.57
2022-12-01T00:29:00.448Z,70.97
2022-12-01T00:31:28.128Z,62.13
2022-12-01T00:33:55.624Z,69.07
2022-12-01T00:36:23.372Z,60.93
2022-12-01T00:38:57.836Z,54.50
2022-12-01T00:41:26.724Z,76.53
2022-12-01T00:43:54.149Z,66.93
2022-12-01T00:46:21.722Z,75.77
2022-12-01T00:48:49.055Z,71.43
2022-12-01T00:51:16.649Z,73.60
2022-12-01T00:53:44.101Z,68.60
2022-12-01T00:56:11.540Z,63.07
2022-12-01T00:58:38.995Z,62.70
2022-12-01T01:01:09.548Z,67.07
2022-12-01T01:03:36.845Z,62.83
2022-12-01T01:06:06.955Z,61.47
2022-12-01T01:08:34.571Z,51.83
2022-12-01T01:11:02.436Z,50.67
2022-12-01T01:13:30.320Z,53.30
2022-12-01T01:15:59.133Z,55.47
2022-12-01T01:18:26.805Z,54.73
2022-12-01T01:21:08.070Z,54.93
2022-12-01T01:23:35.502Z,49.87
2022-12-01T01:26:08.995Z,54.90
2022-12-01T01:28:36.558Z,64.73
2022-12-01T01:31:10.324Z,67.40
2022-12-01T01:33:38.060Z,60.37
2022-12-01T01:36:06.199Z,64.87
2022-12-01T01:38:34.606Z,62.80
2022-12-01T01:41:02.338Z,55.63
2022-12-01T01:43:43.507Z,59.37
2022-12-01T01:46:14.833Z,58.87
2022-12-01T01:48:46.658Z,55.60
2022-12-01T01:51:16.109Z,55.47
2022-12-01T01:53:45.736Z,58.73
2022-12-01T01:56:13.367Z,48.33
2022-12-01T01:58:41.826Z,53.40
2022-12-01T02:01:09.194Z,59.13
2022-12-01T02:03:40.231Z,59.10
2022-12-01T02:06:09.760Z,51.17
2022-12-01T02:08:38.417Z,54.40
2022-12-01T02:11:50.454Z,51.00
2022-12-01T02:14:38.415Z,58.27
2022-12-01T02:17:15.622Z,54.57
2022-12-01T02:19:52.319Z,56.27
2022-12-01T02:22:30.119Z,55.33
2022-12-01T02:25:19.873Z,58.20
2022-12-01T02:28:05.004Z,56.77
2022-12-01T02:30:42.523Z,56.13
2022-12-01T02:33:15.850Z,55.20
2022-12-01T02:36:10.342Z,52.10
2022-12-01T02:38:46.585Z,51.77
2022-12-01T02:41:41.568Z,51.90
2022-12-01T02:44:19.037Z,51.50
2022-12-01T02:47:15.039Z,53.40
2022-12-01T02:49:52.088Z,58.17
2022-12-01T02:52:21.017Z,56.33
2022-12-01T02:54:51.337Z,49.73
2022-12-01T02:57:19.127Z,57.20
2022-12-01T02:59:54.784Z,57.10
2022-12-01T03:02:50.501Z,53.20
2022-12-01T03:05:40.367Z,53.23
2022-12-01T03:08:52.701Z,46.03
2022-12-01T03:11:29.775Z,47.47
2022-12-01T03:14:15.550Z,47.47
2022-12-01T03:16:52.331Z,52.13
2022-12-01T03:19:50.594Z,47.73
2022-12-01T03:22:27.371Z,50.33
2022-12-01T03:24:56.744Z,51.50
2022-12-01T03:27:28.753Z,45.80
2022-12-01T03:30:00.449Z,49.40
2022-12-01T03:32:46.870Z,49.77
2022-12-01T03:35:42.315Z,55.40
2022-12-01T03:38:17.982Z,54.20
2022-12-01T03:40:48.511Z,55.70
2022-12-01T03:43:21.988Z,54.23
2022-12-01T03:46:18.986Z,50.93
2022-12-01T03:48:46.756Z,53.27
2022-12-01T03:51:34.571Z,54.80
2022-12-01T03:54:26.749Z,53.17
2022-12-01T03:57:00.606Z,58.30
2022-12-01T03:59:29.652Z,53.00
2022-12-01T04:01:58.300Z,55.87
2022-12-01T04:04:25.801Z,51.60
2022-12-01T04:06:55.815Z,49.53
2022-12-01T04:09:23.043Z,49.33
2022-12-01T04:12:08.638Z,52.50
2022-12-01T04:14:35.898Z,52.37
2022-12-01T04:17:03.153Z,53.47
2022-12-01T04:19:33.629Z,55.37
2022-12-01T04:22:01.202Z,57.17
2022-12-01T04:24:28.572Z,54.00
2022-12-01T04:26:56.061Z,55.60
2022-12-01T04:29:24.358Z,49.43
2022-12-01T04:31:51.768Z,68.50
2022-12-01T04:34:19.253Z,74.13
2022-12-01T04:36:46.615Z,76.67
2022-12-01T04:39:14.245Z,57.17
2022-12-01T04:41:41.618Z,55.47
2022-12-01T04:44:11.129Z,55.93
2022-12-01T04:46:38.860Z,54.87
2022-12-01T04:49:09.366Z,53.63
2022-12-01T04:51:37.013Z,57.73
2022-12-01T04:54:06.080Z,55.90
2022-12-01T04:56:33.902Z,51.90
2022-12-01T04:59:01.613Z,55.87
2022-12-01T05:01:29.089Z,59.80
2022-12-01T05:03:56.514Z,56.93
2022-12-01T05:06:27.181Z,56.77
2022-12-01T05:09:02.257Z,61.37
2022-12-01T05:11:31.387Z,56.30
2022-12-01T05:13:59.439Z,56.63
2022-12-01T05:16:30.223Z,62.03
2022-12-01T05:19:18.641Z,60.43
2022-12-01T05:21:48.294Z,60.27
2022-12-01T05:24:16.852Z,62.27
2022-12-01T05:26:44.851Z,58.50
2022-12-01T05:29:13.509Z,63.33
2022-12-01T05:31:41.205Z,67.53
2022-12-01T05:34:09.186Z,61.63
2022-12-01T05:36:36.770Z,59.77
2022-12-01T05:39:04.989Z,57.53
2022-12-01T05:41:32.258Z,60.20
2022-12-01T05:43:59.776Z,64.00
2022-12-01T05:46:27.277Z,61.20
2022-12-01T05:48:54.647Z,64.13
2022-12-01T05:51:22.098Z,60.80
2022-12-01T05:53:49.424Z,57.60
2022-12-01T05:56:16.914Z,63.07
2022-12-01T05:58:44.247Z,61.50
2022-12-01T06:01:11.796Z,59.90
2022-12-01T06:03:39.181Z,64.27
2022-12-01T06:06:06.546Z,60.57
2022-12-01T06:08:33.876Z,62.97
2022-12-01T06:11:01.566Z,59.47
2022-12-01T06:13:28.804Z,60.37
2022-12-01T06:16:03.354Z,59.23
2022-12-01T06:18:36.407Z,59.87
2022-12-01T06:21:06.447Z,61.53
2022-12-01T06:23:34.207Z,66.27
2022-12-01T06:26:01.755Z,58.17
2022-12-01T06:28:29.449Z,61.97
2022-12-01T06:31:02.784Z,63.13
2022-12-01T06:33:32.122Z,63.50
2022-12-01T06:36:00.959Z,62.83
2022-12-01T06:38:31.893Z,57.43
2022-12-01T06:40:59.863Z,64.47
2022-12-01T06:43:27.782Z,67.83
2022-12-01T06:46:01.160Z,61.23
2022-12-01T06:48:29.239Z,65.63
2022-12-01T06:51:01.368Z,71.07
2022-12-01T06:53:29.551Z,64.47
2022-12-01T06:56:01.385Z,64.30
2022-12-01T06:58:29.667Z,62.87
2022-12-01T07:00:59.201Z,66.97
2022-12-01T07:03:27.099Z,66.37
2022-12-01T07:06:00.021Z,88.40
2022-12-01T07:08:31.938Z,83.80
2022-12-01T07:11:01.087Z,73.60
2022-12-01T07:13:33.420Z,92.20
2022-12-01T07:16:04.903Z,75.23
2022-12-01T07:18:33.321Z,140.07
2022-12-01T07:21:02.283Z,123.67
2022-12-01T07:23:30.051Z,101.07
2022-12-01T07:26:06.298Z,88.13
2022-12-01T07:28:34.290Z,83.27
2022-12-01T07:31:19.254Z,87.20
2022-12-01T07:33:46.704Z,75.27
2022-12-01T07:36:14.963Z,73.87
2022-12-01T07:38:42.887Z,69.97
2022-12-01T07:41:15.604Z,71.93
2022-12-01T07:43:43.382Z,63.97
2022-12-01T07:46:23.334Z,61.10
2022-12-01T07:48:52.651Z,64.67
2022-12-01T07:51:20.835Z,69.30
2022-12-01T07:53:50.325Z,73.87
2022-12-01T07:56:19.240Z,66.77
2022-12-01T07:58:46.581Z,63.33
2022-12-01T08:01:19.517Z,66.80
2022-12-01T08:03:51.112Z,67.43
2022-12-01T08:06:19.896Z,67.27
2022-12-01T08:08:48.604Z,68.47
2022-12-01T08:11:19.278Z,59.33
2022-12-01T08:13:47.009Z,64.57
2022-12-01T08:16:17.613Z,64.10
2022-12-01T08:18:46.026Z,65.70
2022-12-01T08:21:17.102Z,58.07
2022-12-01T08:23:49.799Z,55.77
2022-12-01T08:26:20.070Z,55.37
2022-12-01T08:28:48.025Z,63.60
2022-12-01T08:31:22.435Z,52.57
2022-12-01T08:33:51.137Z,56.93
2022-12-01T08:36:20.175Z,60.33
2022-12-01T08:38:50.615Z,59.93
2022-12-01T08:41:18.353Z,62.20
2022-12-01T08:44:01.919Z,60.43
2022-12-01T08:46:33.386Z,51.77
2022-12-01T08:49:01.080Z,62.97
2022-12-01T08:51:28.677Z,55.10
2022-12-01T08:53:57.884Z,58.33
2022-12-01T08:56:38.212Z,58.90
2022-12-01T08:59:06.301Z,62.77
2022-12-01T09:01:34.331Z,58.43
2022-12-01T09:04:06.197Z,56.10
2022-12-01T09:06:39.746Z,56.43
2022-12-01T09:09:08.513Z,56.50
2022-12-01T09:11:35.799Z,52.97
2022-12-01T09:14:03.952Z,55.87
2022-12-01T09:16:31.349Z,72.07
2022-12-01T09:18:58.756Z,64.63
2022-12-01T09:21:33.162Z,62.50
2022-12-01T09:24:02.149Z,64.80
2022-12-01T09:26:29.732Z,62.93
2022-12-01T09:28:59.690Z,54.33
2022-12-01T09:31:27.551Z,64.50
2022-12-01T09:34:00.718Z,59.37
2022-12-01T09:36:31.138Z,57.33
2022-12-01T09:38:59.305Z,62.57
2022-12-01T09:42:33.810Z,59.53
2022-12-01T09:45:05.295Z,58.70
2022-12-01T09:47:35.920Z,62.87
2022-12-01T09:50:25.662Z,60.00
2022-12-01T09:52:59.292Z,56.43
2022-12-01T09:55:29.105Z,59.23
2022-12-01T09:57:58.694Z,57.67
2022-12-01T10:00:34.899Z,61.60
2022-12-01T10:03:17.921Z,61.27
2022-12-01T10:06:25.891Z,67.57
2022-12-01T10:09:02.154Z,77.20
2022-12-01T10:11:36.695Z,130.03
2022-12-01T10:14:06.847Z,79.50
2022-12-01T10:16:44.185Z,68.43
2022-12-01T10:19:25.842Z,60.57
2022-12-01T10:22:14.528Z,59.50
2022-12-01T10:25:01.409Z,56.83
2022-12-01T10:28:07.306Z,61.70
2022-12-01T10:30:42.561Z,59.73
2022-12-01T10:33:25.624Z,61.20
2022-12-01T10:35:54.044Z,59.83
2022-12-01T10:38:36.262Z,61.53
2022-12-01T10:41:07.041Z,55.33
2022-12-01T10:43:46.235Z,56.73
2022-12-01T10:46:28.721Z,57.77
2022-12-01T10:49:01.647Z,59.57
2022-12-01T10:51:29.155Z,87.67
2022-12-01T10:54:14.545Z,76.20
2022-12-01T10:56:44.355Z,55.13
2022-12-01T10:59:23.696Z,57.73
2022-12-01T11:01:51.803Z,55.70
2022-12-01T11:04:36.313Z,52.03
2022-12-01T11:07:05.834Z,56.93
2022-12-01T11:09:33.380Z,57.20
2022-12-01T11:12:03.301Z,59.17
2022-12-01T11:14:51.331Z,52.67
2022-12-01T11:17:36.818Z,80.87
2022-12-01T11:20:34.343Z,55.10
2022-12-01T11:23:29.628Z,54.33
2022-12-01T11:26:10.363Z,56.20
2022-12-01T11:28:42.657Z,56.63
2022-12-01T11:31:11.709Z,53.50
2022-12-01T11:33:54.893Z,55.13
2022-12-01T11:36:31.201Z,62.03
2022-12-01T11:39:02.385Z,66.67
2022-12-01T11:41:47.941Z,64.67
2022-12-01T11:44:49.746Z,60.23
2022-12-01T11:47:24.403Z,56.60
2022-12-01T11:49:58.143Z,55.00
2022-12-01T11:52:34.965Z,60.60
2022-12-01T11:55:14.810Z,50.57
2022-12-01T11:57:44.924Z,32.57
2022-12-01T12:00:17.336Z,31.70
2022-12-01T12:02:57.657Z,33.47
2022-12-01T12:06:17.799Z,35.73
2022-12-01T12:09:04.679Z,39.37
2022-12-01T12:11:53.280Z,40.40
2022-12-01T12:14:39.103Z,34.00
2022-12-01T12:17:16.480Z,38.37
2022-12-01T12:20:11.488Z,38.30
2022-12-01T12:22:55.922Z,39.77
2022-12-01T12:25:53.529Z,33.40
2022-12-01T12:28:23.758Z,33.70
2022-12-01T12:31:15.312Z,38.70
2022-12-01T12:33:51.539Z,36.43
2022-12-01T12:36:49.536Z,32.03
2022-12-01T12:39:35.617Z,35.07
2022-12-01T12:42:12.191Z,31.23
2022-12-01T12:44:50.702Z,28.70
2022-12-01T12:47:21.003Z,29.67
2022-12-01T12:50:06.859Z,29.27
2022-12-01T12:52:42.137Z,28.50
2022-12-01T12:55:09.712Z,40.57
2022-12-01T12:57:41.293Z,63.93
2022-12-01T13:00:22.672Z,74.00
2022-12-01T13:03:29.201Z,68.70
2022-12-01T13:06:27.276Z,88.90
2022-12-01T13:09:09.316Z,79.80
2022-12-01T13:11:49.350Z,67.33
2022-12-01T13:14:33.709Z,61.27
2022-12-01T13:17:13.622Z,44.67
2022-12-01T13:19:43.020Z,31.80
2022-12-01T13:22:13.834Z,34.73
2022-12-01T13:24:42.087Z,58.87
2022-12-01T13:27:13.651Z,33.87
2022-12-01T13:29:49.640Z,62.47
2022-12-01T13:32:32.356Z,66.80
2022-12-01T13:35:02.200Z,38.17
2022-12-01T13:37:35.803Z,50.20
2022-12-01T13:40:17.234Z,37.97
2022-12-01T13:43:08.610Z,56.10
2022-12-01T13:45:40.383Z,51.63
2022-12-01T13:48:30.375Z,74.90
2022-12-01T13:51:03.418Z,56.43
2022-12-01T13:53:33.913Z,60.63
2022-12-01T13:56:04.227Z,49.27
2022-12-01T13:58:53.006Z,40.83
2022-12-01T14:01:20.493Z,36.03
2022-12-01T14:03:57.405Z,40.27
2022-12-01T14:06:32.279Z,63.90
2022-12-01T14:09:07.339Z,54.23
2022-12-01T14:11:35.930Z,59.77
2022-12-01T14:14:26.446Z,41.10
2022-12-01T14:16:59.241Z,39.97
2022-12-01T14:19:36.510Z,55.80
2022-12-01T14:22:06.922Z,55.10
2022-12-01T14:24:40.876Z,63.50
2022-12-01T14:27:11.242Z,75.30
2022-12-01T14:29:43.301Z,43.63
2022-12-01T14:32:10.682Z,60.10
2022-12-01T14:34:39.648Z,65.43
2022-12-01T14:37:25.209Z,73.20
2022-12-01T14:40:11.632Z,70.23
2022-12-01T14:43:03.666Z,65.87
2022-12-01T14:46:07.604Z,49.83
2022-12-01T14:48:46.130Z,44.77
2022-12-01T14:51:35.924Z,46.50
2022-12-01T14:54:09.723Z,42.20
2022-12-01T14:56:38.387Z,43.80
2022-12-01T14:59:20.297Z,46.80
2022-12-01T15:01:50.444Z,59.13
2022-12-01T15:04:18.493Z,48.30
2022-12-01T15:06:47.193Z,45.37
2022-12-01T15:09:34.909Z,32.93
2022-12-01T15:12:10.259Z,40.00
2022-12-01T15:14:47.036Z,40.23
2022-12-01T15:17:31.456Z,44.63
2022-12-01T15:20:04.660Z,34.97
2022-12-01T15:22:34.358Z,35.27
2022-12-01T15:25:13.739Z,38.47
2022-12-01T15:27:43.232Z,38.77
2022-12-01T15:30:16.035Z,40.03
2022-12-01T15:32:46.060Z,40.63
2022-12-01T15:35:24.040Z,40.90
2022-12-01T15:37:52.838Z,37.57
2022-12-01T15:43:23.004Z,38.80
2022-12-01T15:46:02.445Z,42.53
2022-12-01T15:48:36.940Z,45.00
2022-12-01T15:51:28.018Z,48.70
2022-12-01T15:54:00.367Z,51.03
2022-12-01T15:56:35.495Z,47.00
2022-12-01T15:59:24.429Z,52.50
2022-12-01T16:01:51.920Z,34.90
2022-12-01T16:04:27.839Z,38.63
2022-12-01T16:06:59.716Z,52.87
2022-12-01T16:09:34.663Z,56.70
2022-12-01T16:12:05.392Z,57.43
2022-12-01T16:14:35.890Z,65.57
2022-12-01T16:17:04.851Z,36.80
2022-12-01T16:19:34.407Z,45.03
2022-12-01T16:22:15.135Z,42.83
2022-12-01T16:24:55.232Z,37.60
2022-12-01T16:27:27.725Z,33.97
2022-12-01T16:30:02.239Z,41.60
2022-12-01T16:32:44.434Z,51.80
2022-12-01T16:35:28.075Z,51.03
2022-12-01T16:37:55.771Z,38.63
2022-12-01T16:40:27.187Z,30.13
2022-12-01T16:42:55.340Z,33.67
2022-12-01T16:45:26.854Z,30.70
2022-12-01T16:47:54.437Z,54.63
2022-12-01T16:50:23.491Z,54.50
2022-12-01T16:52:50.736Z,52.20
2022-12-01T16:55:43.767Z,47.93
2022-12-01T16:58:11.169Z,43.17
2022-12-01T17:00:39.018Z,34.67
2022-12-01T17:03:07.014Z,30.27
2022-12-01T17:05:35.008Z,61.20
2022-12-01T17:08:02.790Z,46.30
2022-12-01T17:10:30.178Z,52.33
2022-12-01T17:12:57.973Z,55.57
2022-12-01T17:15:25.307Z,47.17
2022-12-01T17:17:53.490Z,42.27
2022-12-01T17:20:20.905Z,41.43
2022-12-01T17:22:48.186Z,38.00
2022-12-01T17:25:15.546Z,41.07
2022-12-01T17:27:44.269Z,46.67
2022-12-01T17:30:12.188Z,51.30
2022-12-01T17:32:39.422Z,40.97
2022-12-01T17:35:08.460Z,78.97
2022-12-01T17:37:37.316Z,65.87
2022-12-01T17:40:09.222Z,40.27
2022-12-01T17:42:36.468Z,29.17
2022-12-01T17:45:04.094Z,31.17
2022-12-01T17:47:31.475Z,77.77
2022-12-01T17:49:58.969Z,28.00
2022-12-01T17:52:28.540Z,58.27
2022-12-01T17:54:56.747Z,53.17
2022-12-01T17:57:24.439Z,73.80
2022-12-01T17:59:51.876Z,52.43
2022-12-01T18:02:19.888Z,45.57
2022-12-01T18:04:47.535Z,46.83
2022-12-01T18:07:15.391Z,27.93
2022-12-01T18:09:42.805Z,32.90
2022-12-01T18:12:10.147Z,65.03
2022-12-01T18:14:38.506Z,33.83
2022-12-01T18:17:06.207Z,30.27
2022-12-01T18:19:36.587Z,65.73
2022-12-01T18:22:04.022Z,41.53
2022-12-01T18:24:31.853Z,33.87
2022-12-01T18:26:59.127Z,55.00
2022-12-01T18:29:26.584Z,47.13
2022-12-01T18:31:55.797Z,48.37
2022-12-01T18:34:23.649Z,78.47
2022-12-01T18:36:51.729Z,140.53
2022-12-01T18:39:19.642Z,193.13
2022-12-01T18:41:47.634Z,30.77
2022-12-01T18:44:15.517Z,47.40
2022-12-01T18:46:43.406Z,102.27
2022-12-01T18:49:12.008Z,45.43
2022-12-01T18:51:43.184Z,139.13
2022-12-01T18:54:19.195Z,79.90
2022-12-01T18:56:46.667Z,81.17
2022-12-01T18:59:19.134Z,74.77
2022-12-01T19:01:47.876Z,83.73
2022-12-01T19:04:16.797Z,38.80
2022-12-01T19:06:45.985Z,36.17
2022-12-01T19:09:15.928Z,45.87
2022-12-01T19:11:43.889Z,105.13
2022-12-01T19:14:19.876Z,68.27
2022-12-01T19:16:47.628Z,59.33
2022-12-01T19:19:15.358Z,76.27
2022-12-01T19:21:43.115Z,88.40
2022-12-01T19:24:10.650Z,56.83
2022-12-01T19:26:38.256Z,104.47
2022-12-01T19:29:05.716Z,83.80
2022-12-01T19:31:33.313Z,68.30
2022-12-01T19:34:00.703Z,81.27
2022-12-01T19:36:28.707Z,61.00
2022-12-01T19:39:00.396Z,87.67
2022-12-01T19:41:29.227Z,88.00
2022-12-01T19:43:58.247Z,45.63
2022-12-01T19:46:28.210Z,30.17
2022-12-01T19:48:59.009Z,49.37
2022-12-01T19:51:30.173Z,60.67
2022-12-01T19:53:57.829Z,54.40
2022-12-01T19:56:25.661Z,28.50
2022-12-01T19:58:53.197Z,33.30
2022-12-01T20:01:21.326Z,34.37
2022-12-01T20:03:50.691Z,33.50
2022-12-01T20:06:20.766Z,20.73
2022-12-01T20:08:49.489Z,70.07
2022-12-01T20:11:17.027Z,43.20
2022-12-01T20:13:46.463Z,41.87
2022-12-01T20:16:21.936Z,31.73
2022-12-01T20:18:50.692Z,24.87
2022-12-01T20:21:26.908Z,19.63
2022-12-01T20:24:05.856Z,39.07
2022-12-01T20:26:41.095Z,33.00
2022-12-01T20:29:15.318Z,21.73
2022-12-01T20:31:44.047Z,31.40
2022-12-01T20:34:15.542Z,40.50
2022-12-01T20:36:43.797Z,37.90
2022-12-01T20:39:12.408Z,59.27
2022-12-01T20:41:41.118Z,70.67
2022-12-01T20:44:09.568Z,47.47
2022-12-01T20:46:38.578Z,102.30
2022-12-01T20:49:06.250Z,55.57
2022-12-01T20:51:34.896Z,65.00
2022-12-01T20:56:52.886Z,124.73
2022-12-01T20:59:20.367Z,74.87
2022-12-01T21:01:47.714Z,76.40
2022-12-01T21:04:15.038Z,57.30
2022-12-01T21:06:42.587Z,97.70
2022-12-01T21:09:10.060Z,79.20
2022-12-01T21:12:06.210Z,101.97
2022-12-01T21:14:41.882Z,39.57
2022-12-01T21:17:22.498Z,32.27
2022-12-01T21:19:57.837Z,37.73
2022-12-01T21:22:27.743Z,44.23
2022-12-01T21:25:19.017Z,20.17
2022-12-01T21:27:48.080Z,20.97
2022-12-01T21:30:22.143Z,19.33
2022-12-01T21:32:50.193Z,18.13
2022-12-01T21:35:22.962Z,16.93
2022-12-01T21:37:54.841Z,26.23
2022-12-01T21:40:25.514Z,29.63
2022-12-01T21:42:52.875Z,40.93
2022-12-01T21:45:30.040Z,40.30
2022-12-01T21:48:18.193Z,35.43
2022-12-01T21:50:50.899Z,37.93
2022-12-01T21:53:21.792Z,41.20
2022-12-01T21:55:50.178Z,24.70
2022-12-01T21:58:24.962Z,36.03
2022-12-01T22:00:55.173Z,70.67
2022-12-01T22:03:26.973Z,79.60
2022-12-01T22:06:32.214Z,50.63
2022-12-01T22:09:04.811Z,171.53
2022-12-01T22:11:32.429Z,76.33
2022-12-01T22:14:15.715Z,119.20
2022-12-01T22:16:53.736Z,77.37
2022-12-01T22:19:29.061Z,86.67
2022-12-01T22:22:11.725Z,107.53
2022-12-01T22:24:49.848Z,86.87
2022-12-01T22:27:34.850Z,54.10
2022-12-01T22:30:07.964Z,31.83
2022-12-01T22:32:38.409Z,46.60
2022-12-01T22:35:08.816Z,31.47
2022-12-01T22:37:46.613Z,48.17
2022-12-01T22:40:32.100Z,32.47
2022-12-01T22:43:19.009Z,30.90
2022-12-01T22:45:50.943Z,29.30
2022-12-01T22:48:27.318Z,33.73
2022-12-01T22:50:55.794Z,31.07
2022-12-01T22:53:32.355Z,24.33
2022-12-01T22:56:01.890Z,26.20
2022-12-01T22:58:35.534Z,30.10
2022-12-01T23:01:17.798Z,25.97
2022-12-01T23:03:45.057Z,31.37
2022-12-01T23:06:59.908Z,27.17
2022-12-01T23:09:31.795Z,30.70
2022-12-01T23:12:34.985Z,25.70
2022-12-01T23:15:45.300Z,25.53
2022-12-01T23:18:16.632Z,23.87
2022-12-01T23:20:46.489Z,20.80
2022-12-01T23:23:19.985Z,21.47
2022-12-01T23:25:49.394Z,23.50
2022-12-01T23:28:17.183Z,26.57
2022-12-01T23:30:45.932Z,20.60
2022-12-01T23:33:20.378Z,20.47
2022-12-01T23:36:16.636Z,24.10
2022-12-01T23:38:47.326Z,22.53
2022-12-01T23:41:25.234Z,27.23
2022-12-01T23:43:55.964Z,24.37
2022-12-01T23:46:25.327Z,26.70
2022-12-01T23:49:23.194Z,23.93
2022-12-01T23:52:01.028Z,23.27
2022-12-01T23:54:33.719Z,32.90
2022-12-01T23:57:30.523Z,23.97
